createdAt,value
2023-01-02T11:48:45.772Z,6.33
2023-01-02T11:51:41.241Z,4.67
2023-01-02T11:54:56.924Z,5.07
2023-01-02T12:09:45.507Z,10.93
2023-01-02T12:12:33.848Z,9.93
2023-01-02T12:15:37.383Z,6.73
2023-01-02T12:18:43.244Z,9.90
2023-01-02T12:31:29.818Z,13.60
2023-01-02T12:34:25.447Z,10.53
2023-01-02T12:37:07.341Z,7.07
2023-01-02T12:39:55.007Z,7.73
2023-01-02T12:42:30.662Z,5.73
2023-01-02T12:44:59.042Z,9.77
2023-01-02T12:48:00.665Z,10.73
2023-01-02T12:50:49.055Z,12.43
2023-01-02T12:53:41.991Z,12.47
2023-01-02T12:56:15.508Z,9.03
2023-01-02T12:59:12.704Z,4.60
2023-01-02T13:01:59.472Z,16.17
2023-01-02T13:04:35.603Z,10.43
2023-01-02T13:07:10.161Z,14.67
2023-01-02T13:09:45.588Z,5.03
2023-01-02T13:12:21.820Z,10.63
2023-01-02T13:14:58.073Z,6.00
2023-01-02T13:17:46.483Z,11.13
2023-01-02T13:20:50.792Z,9.53
2023-01-02T13:23:36.868Z,10.27
2023-01-02T13:26:23.174Z,12.67
2023-01-02T13:28:52.825Z,5.07
2023-01-02T13:31:45.576Z,11.70
2023-01-02T13:34:22.302Z,6.20
2023-01-02T13:36:51.285Z,10.77
2023-01-02T13:39:27.516Z,11.83
2023-01-02T13:42:17.148Z,7.80
2023-01-02T13:44:47.806Z,14.40
2023-01-02T13:47:24.702Z,10.90
2023-01-02T13:50:02.818Z,12.37
2023-01-02T13:52:29.693Z,9.37
2023-01-02T13:55:21.126Z,14.97
2023-01-02T13:58:17.768Z,7.80
2023-01-02T14:00:54.280Z,7.83
2023-01-02T14:03:24.960Z,6.10
2023-01-02T14:05:58.016Z,5.57
2023-01-02T14:08:30.509Z,13.53
2023-01-02T14:11:01.855Z,8.20
2023-01-02T14:13:36.127Z,7.90
2023-01-02T14:16:39.158Z,5.27
2023-01-02T14:19:16.476Z,7.20
2023-01-02T14:21:50.873Z,9.57
2023-01-02T14:24:41.172Z,6.23
2023-01-02T14:27:33.245Z,12.80
2023-01-02T14:30:04.946Z,6.20
2023-01-02T14:32:34.369Z,16.33
2023-01-02T14:35:05.205Z,5.93
2023-01-02T14:37:47.969Z,11.10
2023-01-02T14:40:23.406Z,6.83
2023-01-02T14:43:13.311Z,10.10
2023-01-02T14:45:46.850Z,11.40
2023-01-02T14:48:19.349Z,17.10
2023-01-02T14:50:48.785Z,8.13
2023-01-02T14:53:38.660Z,4.40
2023-01-02T14:56:15.352Z,8.23
2023-01-02T14:58:44.253Z,9.60
2023-01-02T15:01:15.286Z,10.77
2023-01-02T15:04:14.098Z,24.70
2023-01-02T15:06:48.897Z,14.00
2023-01-02T15:09:29.578Z,15.73
2023-01-02T15:12:17.114Z,16.97
2023-01-02T15:14:43.988Z,18.13
2023-01-02T15:17:19.279Z,20.30
2023-01-02T15:19:47.332Z,17.70
2023-01-02T15:22:19.533Z,19.47
2023-01-02T15:24:51.556Z,19.37
2023-01-02T15:27:25.369Z,26.30
2023-01-02T15:29:55.436Z,14.37
2023-01-02T15:32:29.294Z,11.43
2023-01-02T15:35:10.003Z,19.07
2023-01-02T15:37:45.797Z,18.73
2023-01-02T15:40:26.482Z,10.97
2023-01-02T15:43:13.831Z,16.17
2023-01-02T15:45:47.259Z,14.57
2023-01-02T15:48:14.947Z,6.57
2023-01-02T15:50:42.125Z,8.47
2023-01-02T15:53:20.785Z,9.97
2023-01-02T15:55:48.213Z,10.77
2023-01-02T15:58:14.887Z,11.03
2023-01-02T16:00:42.600Z,8.53
2023-01-02T16:03:11.229Z,10.50
2023-01-02T16:05:49.545Z,9.37
2023-01-02T16:08:26.007Z,12.87
2023-01-02T16:11:01.244Z,14.60
2023-01-02T16:14:04.127Z,4.73
2023-01-02T16:17:11.444Z,14.43
2023-01-02T16:20:00.262Z,11.87
2023-01-02T16:22:35.006Z,9.93
2023-01-02T16:25:13.282Z,6.23
2023-01-02T16:27:51.814Z,10.60
2023-01-02T16:30:38.285Z,10.20
2023-01-02T16:33:27.861Z,10.77
2023-01-02T16:36:03.613Z,14.23
2023-01-02T16:38:54.089Z,16.73
2023-01-02T16:41:40.954Z,7.70
2023-01-02T16:44:14.481Z,12.40
2023-01-02T16:46:43.030Z,15.30
2023-01-02T16:49:21.884Z,15.33
2023-01-02T16:51:51.324Z,15.33
2023-01-02T16:54:19.626Z,12.23
2023-01-02T16:56:47.797Z,6.40
2023-01-02T16:59:14.471Z,11.67
2023-01-02T17:01:41.507Z,11.50
2023-01-02T17:04:08.912Z,9.33
2023-01-02T17:06:35.776Z,16.57
2023-01-02T17:09:02.456Z,12.43
2023-01-02T17:11:29.728Z,8.23
2023-01-02T17:13:56.509Z,14.97
2023-01-02T17:16:23.355Z,22.80
2023-01-02T17:18:50.028Z,22.20
2023-01-02T17:21:16.741Z,13.23
2023-01-02T17:23:43.535Z,8.50
2023-01-02T17:26:10.240Z,9.33
2023-01-02T17:28:36.995Z,10.03
2023-01-02T17:31:04.083Z,7.60
2023-01-02T17:33:30.804Z,7.23
2023-01-02T17:35:58.224Z,5.93
2023-01-02T17:38:25.107Z,4.73
2023-01-02T17:40:59.073Z,6.00
2023-01-02T17:43:26.545Z,9.13
2023-01-02T17:45:53.692Z,3.37
2023-01-02T17:48:24.629Z,5.20
2023-01-02T17:50:52.927Z,4.97
2023-01-02T17:53:19.660Z,2.37
2023-01-02T17:56:21.030Z,6.73
2023-01-02T17:58:44.017Z,6.73
2023-01-02T18:01:21.269Z,5.17
2023-01-02T18:03:48.823Z,10.80
2023-01-02T18:06:16.573Z,8.60
2023-01-02T18:08:44.051Z,4.13
2023-01-02T18:11:15.868Z,6.73
2023-01-02T18:13:48.144Z,4.13
2023-01-02T18:16:29.301Z,3.00
2023-01-02T18:18:56.096Z,9.00
2023-01-02T18:21:28.124Z,6.60
2023-01-02T18:23:58.445Z,6.13
2023-01-02T18:26:26.476Z,5.00
2023-01-02T18:28:57.301Z,9.90
2023-01-02T18:31:25.419Z,7.27
2023-01-02T18:33:57.023Z,11.80
2023-01-02T18:36:24.739Z,7.50
2023-01-02T18:39:13.709Z,7.30
2023-01-02T18:41:41.520Z,14.20
2023-01-02T18:44:24.873Z,12.17
2023-01-02T18:47:06.675Z,3.80
2023-01-02T18:49:41.639Z,9.47
2023-01-02T18:52:11.526Z,7.90
2023-01-02T18:54:43.215Z,4.77
2023-01-02T18:57:17.531Z,5.40
2023-01-02T18:59:46.682Z,13.27
2023-01-02T19:02:44.670Z,3.00
2023-01-02T19:05:44.193Z,4.80
2023-01-02T19:08:21.345Z,6.43
2023-01-02T19:10:51.323Z,7.33
2023-01-02T19:13:30.177Z,5.20
2023-01-02T19:16:11.110Z,7.00
2023-01-02T19:18:46.994Z,7.70
2023-01-02T19:21:17.159Z,7.17
2023-01-02T19:23:46.873Z,5.27
2023-01-02T19:26:24.376Z,7.20
2023-01-02T19:28:56.669Z,14.93
2023-01-02T19:31:23.784Z,4.20
2023-01-02T19:33:55.140Z,6.10
2023-01-02T19:36:36.622Z,5.93
2023-01-02T19:39:30.199Z,6.10
2023-01-02T19:42:15.903Z,7.80
2023-01-02T19:44:42.595Z,5.67
2023-01-02T19:47:09.297Z,8.50
2023-01-02T19:49:36.042Z,10.40
2023-01-02T19:52:02.857Z,8.70
2023-01-02T19:54:29.673Z,8.17
2023-01-02T19:56:56.394Z,12.30
2023-01-02T19:59:23.096Z,6.57
2023-01-02T20:01:49.927Z,13.17
2023-01-02T20:04:17.048Z,9.50
2023-01-02T20:06:43.767Z,4.77
2023-01-02T20:09:10.534Z,8.33
2023-01-02T20:11:56.107Z,5.00
2023-01-02T20:14:22.976Z,8.60
2023-01-02T20:16:49.707Z,9.87
2023-01-02T20:19:16.483Z,9.60
2023-01-02T20:21:43.202Z,5.33
2023-01-02T20:24:09.932Z,2.37
2023-01-02T20:26:36.632Z,2.40
2023-01-02T20:29:04.200Z,1.50
2023-01-02T20:31:31.388Z,2.63
2023-01-02T20:33:58.207Z,1.67
2023-01-02T20:36:24.935Z,1.20
2023-01-02T20:38:52.839Z,1.40
2023-01-02T20:41:19.641Z,1.83
2023-01-02T20:43:46.449Z,1.90
2023-01-02T20:46:13.222Z,2.23
2023-01-02T20:48:40.043Z,12.57
2023-01-02T20:51:06.907Z,14.37
2023-01-02T20:53:33.709Z,2.03
2023-01-02T20:56:00.584Z,1.60
2023-01-02T20:58:27.318Z,1.00
2023-01-02T21:00:54.073Z,1.67
2023-01-02T21:03:20.922Z,1.20
2023-01-02T21:05:47.811Z,1.00
2023-01-02T21:08:14.605Z,1.30
2023-01-02T21:10:42.122Z,5.63
2023-01-02T21:13:10.839Z,1.00
2023-01-02T21:15:42.136Z,2.33
2023-01-02T21:18:09.644Z,1.10
2023-01-02T21:20:39.881Z,2.60
2023-01-02T21:23:10.160Z,0.80
2023-01-02T21:25:38.087Z,1.00
2023-01-02T21:28:06.712Z,1.00
2023-01-02T21:30:34.441Z,1.27
2023-01-02T21:33:01.187Z,0.87
2023-01-02T21:35:27.949Z,0.80
2023-01-02T21:37:54.634Z,1.50
2023-01-02T21:40:21.520Z,0.90
2023-01-02T21:42:48.386Z,1.00
2023-01-02T21:45:15.089Z,3.30
2023-01-02T21:47:41.807Z,0.93
2023-01-02T21:50:09.296Z,1.80
2023-01-02T21:52:36.122Z,1.50
2023-01-02T21:55:04.299Z,1.67
2023-01-02T21:58:02.615Z,1.10
2023-01-02T22:00:23.864Z,1.13
2023-01-02T22:02:51.408Z,1.23
2023-01-02T22:05:19.140Z,1.03
2023-01-02T22:07:46.565Z,1.83
2023-01-02T22:10:15.449Z,2.33
2023-01-02T22:12:42.781Z,1.73
2023-01-02T22:15:11.645Z,1.00
2023-01-02T22:17:38.418Z,2.10
2023-01-02T22:20:05.602Z,5.23
2023-01-02T22:22:32.390Z,1.80
2023-01-02T22:24:59.181Z,2.00
2023-01-02T22:27:26.135Z,5.90
2023-01-02T22:32:44.307Z,2.90
2023-01-02T22:35:11.143Z,1.50
2023-01-02T22:37:37.887Z,2.80
2023-01-02T22:40:04.975Z,1.43
2023-01-02T22:43:02.115Z,1.30
2023-01-02T22:45:35.584Z,1.70
2023-01-02T22:48:06.036Z,2.23
2023-01-02T22:50:41.975Z,1.40
2023-01-02T22:53:27.696Z,1.53
2023-01-02T22:55:55.046Z,1.63
2023-01-02T22:58:22.901Z,1.60
2023-01-02T23:01:03.320Z,1.40
2023-01-02T23:03:35.468Z,2.33
2023-01-02T23:06:02.237Z,1.30
2023-01-02T23:08:29.105Z,2.20
2023-01-02T23:10:56.029Z,1.97
2023-01-02T23:13:22.757Z,1.73
2023-01-02T23:16:07.966Z,1.67
2023-01-02T23:18:57.028Z,1.33
2023-01-02T23:21:27.983Z,1.53
2023-01-02T23:23:54.868Z,1.63
2023-01-02T23:26:24.393Z,1.73
2023-01-02T23:29:07.962Z,1.90
2023-01-02T23:31:37.606Z,1.50
2023-01-02T23:34:04.571Z,3.10
2023-01-02T23:36:31.528Z,2.57
2023-01-02T23:38:58.274Z,5.47
2023-01-02T23:41:25.081Z,3.53
2023-01-02T23:43:51.810Z,8.30
2023-01-02T23:46:19.100Z,7.70
2023-01-02T23:48:45.781Z,8.90
2023-01-02T23:51:12.518Z,6.77
2023-01-02T23:53:39.514Z,1.63
2023-01-02T23:56:27.179Z,2.67
2023-01-02T23:58:56.132Z,1.63
